Terminal Aerodrome Forecast
Issued by NWS Duluth, MN

Home | Current Version | Previous Version | Text Only | Print | Product List | Glossary On
Versions: 1 2 3 4 5 6 7 8 9 10 11 12 13 14 15 16
000
FTUS43 KDLH 010300 AAA
TAFDLH
TAF AMD
KDLH 010300Z 0103/0124 21012KT P6SM BKN110
     FM010400 19010KT P6SM -SN SCT023 BKN035
     FM010900 23008KT P6SM SCT035
     FM011600 27012KT P6SM BKN035=

USA.gov is the U.S. government's official web portal to all federal, state and local government web resources and services.